• Join FlightAware (Why Join?)
  • Login
  • US Flag 
02:24PM EST


 

Airport Tracker/Info


-or-


 

Live Flight TrackerFlight Track Log ✈ SWA2353 ✈ 29-Apr-2013 ✈ KPHL - KMDW

Flight Track Log - Related Links

Times and Time Zones

All times are in EDT time to prevent confusion due to time zone crossing. See the SWA2353 flight status page for this flight to view local times or setup timezone preferences in your user account.

Time Position Orientation Groundspeed Altitude Reporting Facility
EDT Latitude Longitude Course Direction KTS MPH feet Rate Location/Type
07:32PM 39.8833 -75.2167 57° Northeast 151 174 1,000  Level Philadelphia TRACON
07:33PM 39.9000 -75.1833 57° Northeast 213 245 3,200 3,600 Climbing Philadelphia TRACON
07:34PM 39.9333 -75.1333 49° Northeast 248 285 7,600 2,400 Climbing Philadelphia TRACON
07:35PM 40.0167 -75.1500 351° North 274 315 8,000 180 Climbing Philadelphia TRACON
07:36PM 40.0667 -75.2333 308° West 285 328 8,000 1,080 Level Philadelphia TRACON
07:38PM 40.1492 -75.4200 300° West 296 341 11,400 1,620 Climbing New York Center
07:39PM 40.1994 -75.5183 304° West 342 394 13,000 780 Climbing New York Center
07:40PM 40.2736 -75.6378 309° West 381 438 13,000 1,080 Level New York Center
07:41PM 40.3442 -75.7436 311° West 387 445 15,200 1,980 Climbing New York Center
07:42PM 40.4167 -75.8525 311° West 397 457 17,000 2,040 Climbing New York Center
07:43PM 40.4550 -75.9781 292° West 403 464 19,400 2,640 Climbing New York Center
07:44PM 40.4756 -76.1269 280° West 403 464 22,300 2,940 Climbing New York Center
07:45PM 40.4975 -76.2814 281° West 416 479 25,300 2,700 Climbing New York Center
07:46PM 40.5214 -76.4389 281° West 436 502 27,800 1,380 Climbing New York Center
07:47PM 40.5450 -76.5967 281° West 443 510 28,100 1,500 Climbing New York Center
07:48PM 40.5644 -76.7514 279° West 438 504 30,800 2,580 Climbing New York Center
07:49PM 40.5878 -76.9064 281° West 433 498 33,300 2,160 Climbing New York Center
07:50PM 40.6128 -77.0619 282° West 433 498 35,200 720 Climbing New York Center
07:52PM 40.6683 -77.4542 281° West 426 490 36,000 180 Climbing Cleveland Center
07:53PM 40.6869 -77.6039 279° West 426 490 36,000  Level Cleveland Center
07:54PM 40.7075 -77.7536 280° West 426 490 36,000  Level Cleveland Center
07:55PM 40.7278 -77.9033 280° West 426 490 36,000  Level Cleveland Center
07:56PM 40.7481 -78.0533 280° West 426 490 36,000  Level Cleveland Center
07:57PM 40.7681 -78.2089 280° West 426 490 36,000  Level Cleveland Center
07:58PM 40.7878 -78.3589 280° West 426 490 36,000  Level Cleveland Center
07:59PM 40.8072 -78.5119 280° West 426 490 36,000  Level Cleveland Center
08:00PM 40.8286 -78.6650 281° West 426 490 36,000  Level Cleveland Center
08:01PM 40.8478 -78.8181 279° West 426 490 36,000  Level Cleveland Center
08:02PM 40.8664 -78.9522 280° West 426 490 36,000  Level Cleveland Center
08:03PM 40.8853 -79.1056 279° West 426 490 36,000  Level Cleveland Center
08:04PM 40.9058 -79.2561 280° West 426 490 36,000  Level Cleveland Center
08:05PM 40.9222 -79.4097 278° West 426 490 36,000  Level Cleveland Center
08:06PM 40.9422 -79.5606 280° West 426 490 36,000  Level Cleveland Center
08:07PM 40.9581 -79.7089 278° West 426 490 36,000  Level Cleveland Center
08:08PM 40.9758 -79.8569 279° West 421 484 36,000  Level Cleveland Center
08:09PM 40.9956 -80.0081 280° West 421 484 36,000  Level Cleveland Center
08:10PM 41.0128 -80.1567 279° West 421 484 36,000  Level Cleveland Center
08:11PM 41.0300 -80.3106 278° West 421 484 36,000  Level Cleveland Center
08:12PM 41.0447 -80.4647 277° West 426 490 36,000  Level Cleveland Center
08:13PM 41.0614 -80.6133 279° West 426 490 36,000  Level Cleveland Center
08:14PM 41.0803 -80.7622 280° West 421 484 36,000  Level Cleveland Center
08:15PM 41.0964 -80.9164 278° West 421 484 36,000  Level Cleveland Center
08:16PM 41.1106 -81.0792 277° West 416 479 36,000  Level Cleveland Center
08:17PM 41.1264 -81.2308 278° West 416 479 36,000  Level Cleveland Center
08:18PM 41.1422 -81.3800 278° West 416 479 36,000  Level Cleveland Center
08:19PM 41.1578 -81.5097 279° West 409 471 36,000  Level Cleveland Center
08:20PM 41.1711 -81.6589 277° West 409 471 36,000  Level Cleveland Center
08:21PM 41.1864 -81.8081 278° West 409 471 36,000  Level Cleveland Center
08:22PM 41.2011 -81.9575 278° West 409 471 36,000  Level Cleveland Center
08:23PM 41.2161 -82.1069 278° West 409 471 36,000  Level Cleveland Center
08:24PM 41.2286 -82.2589 276° West 416 479 36,000  Level Cleveland Center
08:25PM 41.2428 -82.4139 277° West 405 466 36,000  Level Cleveland Center
08:26PM 41.2550 -82.5525 277° West 389 448 36,000  Level Cleveland Center
08:27PM 41.2672 -82.6908 277° West 389 448 36,000  Level Cleveland Center
08:28PM 41.2811 -82.8297 278° West 384 442 36,000  Level Cleveland Center
08:29PM 41.2931 -82.9708 276° West 384 442 36,000  Level Cleveland Center
08:30PM 41.3047 -83.1069 277° West 384 442 36,000  Level Cleveland Center
08:31PM 41.3161 -83.2456 276° West 384 442 36,000  Level Cleveland Center
08:32PM 41.3275 -83.3814 276° West 384 442 36,000 -300 Level Cleveland Center
08:33PM 41.3406 -83.5203 277° West 384 442 35,500 -720 Descending Cleveland Center
08:34PM 41.3517 -83.6592 276° West 384 442 34,600 -780 Descending Cleveland Center
08:35PM 41.3622 -83.8036 276° West 390 449 34,000 -240 Descending Cleveland Center
08:37PM 41.3836 -84.0181 278° West 386 444 34,000 -360 Level Chicago Center
08:38PM 41.3942 -84.1597 276° West 387 445 33,100 -900 Descending Chicago Center
08:39PM 41.4056 -84.3017 276° West 387 445 32,200 -1,020 Descending Chicago Center
08:40PM 41.4156 -84.4372 276° West 373 429 31,100 -1,080 Descending Chicago Center
08:41PM 41.4281 -84.5958 276° West 360 414 30,000 -540 Descending Chicago Center
08:42PM 41.4367 -84.7283 275° West 356 410 30,000  Level Chicago Center
08:43PM 41.4469 -84.8600 276° West 359 413 30,000  Level Chicago Center
08:44PM 41.4572 -85.0036 276° West 384 442 30,000  Level Chicago Center
08:45PM 41.4678 -85.1506 276° West 395 455 30,000 -1,380 Level Chicago Center
08:46PM 41.4772 -85.2967 275° West 393 452 27,200 -2,760 Descending Chicago Center
08:47PM 41.4861 -85.4436 275° West 391 450 24,400 -2,040 Descending Chicago Center
08:48PM 41.4964 -85.5814 276° West 367 422 23,100 -1,260 Descending Chicago Center
08:49PM 41.5064 -85.7442 275° West 364 419 21,900 -1,200 Descending Chicago Center
08:50PM 41.5156 -85.8794 275° West 364 419 20,700 -1,800 Descending Chicago Center
08:51PM 41.5239 -86.0103 275° West 356 410 18,300 -2,340 Descending Chicago Center
08:52PM 41.5244 -86.1378 270° West 348 400 15,900 -2,280 Descending Chicago Center
08:53PM 41.5228 -86.2592 269° West 331 381 13,600 -2,280 Descending Chicago Center
08:54PM 41.5233 -86.3758 270° West 317 365 11,300 -1,740 Descending Chicago Center
08:55PM 41.5222 -86.4897 269° West 310 357 10,100 -600 Descending Chicago Center
08:56PM 41.5211 -86.6253 269° West 307 353 10,100  Level Chicago Center
08:57PM 41.5194 -86.7417 269° West 307 353 10,100  Level Chicago Center
08:58PM 41.5197 -86.8528 270° West 302 348 10,100 -300 Level Chicago Center
08:59PM 41.5178 -86.9475 268° West 269 310 9,600 -1,140 Descending Chicago Center
09:00PM 41.5164 -87.0483 269° West 267 307 7,800 -1,620 Descending Chicago Center
09:02PM 41.5167 -87.1833 270° West 261 300 6,000 -840 Descending Chicago TRACON
09:03PM 41.5333 -87.2833 283° West 260 299 6,000  Level Chicago TRACON
09:04PM 41.5500 -87.3667 285° West 219 252 6,000  Level Chicago TRACON
09:05PM 41.5564 -87.4225 279° West 235 270 6,000 -480 Level Chicago Center
09:06PM 41.5986 -87.4869 311° West 236 272 5,200 -840 Descending Chicago Center
09:07PM 41.6403 -87.5506 311° West 234 269 4,300 -960 Descending Chicago Center
09:08PM 41.6969 -87.5725 344° North 229 264 3,300 -840 Descending Chicago Center
09:09PM 41.7497 -87.5575 12° North 230 265 2,600 -540 Descending Chicago Center
09:10PM 41.7875 -87.6108 314° West 210 242 2,200 -360 Descending Chicago Center
09:11PM 41.8167 -87.6667 305° West 196 226 2,000 -420 Descending Chicago TRACON
09:12PM 41.8167 -87.7167 270° West 137 158 1,500 -540 Descending Chicago TRACON